sensor_id;sensor_type;location;lat;lon;timestamp;P1;durP1;ratioP1;P2;durP2;ratioP2
10920;SDS011;5513;50.580;8.818;2022-10-16T00:00:14;16.17;;;14.50;;
10920;SDS011;5513;50.580;8.818;2022-10-16T00:02:46;15.83;;;14.30;;
10920;SDS011;5513;50.580;8.818;2022-10-16T00:05:14;15.13;;;13.57;;
10920;SDS011;5513;50.580;8.818;2022-10-16T00:07:43;16.40;;;13.50;;
10920;SDS011;5513;50.580;8.818;2022-10-16T00:10:12;14.80;;;13.17;;
10920;SDS011;5513;50.580;8.818;2022-10-16T00:12:42;15.53;;;13.50;;
10920;SDS011;5513;50.580;8.818;2022-10-16T00:15:11;14.77;;;13.23;;
10920;SDS011;5513;50.580;8.818;2022-10-16T00:17:39;15.50;;;13.50;;
10920;SDS011;5513;50.580;8.818;2022-10-16T00:20:08;15.47;;;13.20;;
10920;SDS011;5513;50.580;8.818;2022-10-16T00:22:37;16.40;;;13.50;;
10920;SDS011;5513;50.580;8.818;2022-10-16T00:25:06;13.30;;;12.03;;
10920;SDS011;5513;50.580;8.818;2022-10-16T00:27:35;12.40;;;11.30;;
10920;SDS011;5513;50.580;8.818;2022-10-16T00:30:07;11.47;;;10.30;;
10920;SDS011;5513;50.580;8.818;2022-10-16T00:32:36;14.50;;;9.93;;
10920;SDS011;5513;50.580;8.818;2022-10-16T00:35:06;11.10;;;9.80;;
10920;SDS011;5513;50.580;8.818;2022-10-16T00:37:35;12.17;;;9.67;;
10920;SDS011;5513;50.580;8.818;2022-10-16T00:40:06;10.33;;;8.70;;
10920;SDS011;5513;50.580;8.818;2022-10-16T00:42:35;9.23;;;7.90;;
10920;SDS011;5513;50.580;8.818;2022-10-16T00:45:10;9.47;;;7.57;;
10920;SDS011;5513;50.580;8.818;2022-10-16T00:47:39;7.93;;;7.17;;
10920;SDS011;5513;50.580;8.818;2022-10-16T00:50:13;9.43;;;7.13;;
10920;SDS011;5513;50.580;8.818;2022-10-16T00:52:52;7.23;;;6.63;;
10920;SDS011;5513;50.580;8.818;2022-10-16T00:55:22;7.50;;;6.80;;
10920;SDS011;5513;50.580;8.818;2022-10-16T00:57:51;9.80;;;7.20;;
10920;SDS011;5513;50.580;8.818;2022-10-16T01:00:24;11.63;;;8.93;;
10920;SDS011;5513;50.580;8.818;2022-10-16T01:02:54;10.20;;;8.63;;
10920;SDS011;5513;50.580;8.818;2022-10-16T01:05:24;12.30;;;8.40;;
10920;SDS011;5513;50.580;8.818;2022-10-16T01:07:58;9.33;;;8.43;;
10920;SDS011;5513;50.580;8.818;2022-10-16T01:10:35;8.97;;;8.07;;
10920;SDS011;5513;50.580;8.818;2022-10-16T01:13:07;8.57;;;7.07;;
10920;SDS011;5513;50.580;8.818;2022-10-16T01:15:42;10.53;;;7.13;;
10920;SDS011;5513;50.580;8.818;2022-10-16T01:18:16;6.87;;;6.23;;
10920;SDS011;5513;50.580;8.818;2022-10-16T01:20:50;7.33;;;6.10;;
10920;SDS011;5513;50.580;8.818;2022-10-16T01:23:25;12.03;;;6.30;;
10920;SDS011;5513;50.580;8.818;2022-10-16T01:26:14;7.63;;;6.37;;
10920;SDS011;5513;50.580;8.818;2022-10-16T01:28:59;7.33;;;6.17;;
10920;SDS011;5513;50.580;8.818;2022-10-16T01:31:38;9.97;;;5.67;;
10920;SDS011;5513;50.580;8.818;2022-10-16T01:34:09;7.07;;;5.93;;
10920;SDS011;5513;50.580;8.818;2022-10-16T01:36:45;6.87;;;5.50;;
10920;SDS011;5513;50.580;8.818;2022-10-16T01:39:18;6.83;;;5.13;;
10920;SDS011;5513;50.580;8.818;2022-10-16T01:41:51;8.83;;;5.27;;
10920;SDS011;5513;50.580;8.818;2022-10-16T01:44:32;5.47;;;4.67;;
10920;SDS011;5513;50.580;8.818;2022-10-16T01:47:03;5.00;;;4.50;;
10920;SDS011;5513;50.580;8.818;2022-10-16T01:49:34;9.10;;;4.77;;
10920;SDS011;5513;50.580;8.818;2022-10-16T01:52:08;5.53;;;4.53;;
10920;SDS011;5513;50.580;8.818;2022-10-16T01:54:40;8.03;;;4.17;;
10920;SDS011;5513;50.580;8.818;2022-10-16T01:57:12;4.80;;;3.77;;
10920;SDS011;5513;50.580;8.818;2022-10-16T01:59:44;3.97;;;3.57;;
10920;SDS011;5513;50.580;8.818;2022-10-16T02:02:15;4.90;;;3.10;;
10920;SDS011;5513;50.580;8.818;2022-10-16T02:04:48;3.60;;;3.30;;
10920;SDS011;5513;50.580;8.818;2022-10-16T02:07:21;6.57;;;3.87;;
10920;SDS011;5513;50.580;8.818;2022-10-16T02:09:50;4.07;;;3.67;;
10920;SDS011;5513;50.580;8.818;2022-10-16T02:12:21;4.70;;;3.50;;
10920;SDS011;5513;50.580;8.818;2022-10-16T02:14:56;5.70;;;3.97;;
10920;SDS011;5513;50.580;8.818;2022-10-16T02:17:25;5.23;;;4.20;;
10920;SDS011;5513;50.580;8.818;2022-10-16T02:19:55;4.77;;;4.27;;
10920;SDS011;5513;50.580;8.818;2022-10-16T02:22:26;8.93;;;4.70;;
10920;SDS011;5513;50.580;8.818;2022-10-16T02:24:58;7.80;;;5.10;;
10920;SDS011;5513;50.580;8.818;2022-10-16T02:27:31;8.43;;;4.93;;
10920;SDS011;5513;50.580;8.818;2022-10-16T02:30:06;5.43;;;4.80;;
10920;SDS011;5513;50.580;8.818;2022-10-16T02:32:39;6.53;;;5.37;;
10920;SDS011;5513;50.580;8.818;2022-10-16T02:35:12;7.53;;;6.13;;
10920;SDS011;5513;50.580;8.818;2022-10-16T02:37:43;7.23;;;6.50;;
10920;SDS011;5513;50.580;8.818;2022-10-16T02:40:12;6.97;;;6.23;;
10920;SDS011;5513;50.580;8.818;2022-10-16T02:42:49;8.00;;;5.50;;
10920;SDS011;5513;50.580;8.818;2022-10-16T02:45:21;7.50;;;6.80;;
10920;SDS011;5513;50.580;8.818;2022-10-16T02:47:51;8.00;;;6.63;;
10920;SDS011;5513;50.580;8.818;2022-10-16T02:50:20;7.77;;;6.83;;
10920;SDS011;5513;50.580;8.818;2022-10-16T02:52:50;11.63;;;7.87;;
10920;SDS011;5513;50.580;8.818;2022-10-16T02:55:19;10.40;;;8.10;;
10920;SDS011;5513;50.580;8.818;2022-10-16T02:57:48;11.50;;;8.60;;
10920;SDS011;5513;50.580;8.818;2022-10-16T03:00:17;9.70;;;8.30;;
10920;SDS011;5513;50.580;8.818;2022-10-16T03:02:48;9.47;;;8.17;;
10920;SDS011;5513;50.580;8.818;2022-10-16T03:05:16;15.63;;;8.23;;
10920;SDS011;5513;50.580;8.818;2022-10-16T03:07:45;10.70;;;8.63;;
10920;SDS011;5513;50.580;8.818;2022-10-16T03:10:14;12.00;;;8.83;;
10920;SDS011;5513;50.580;8.818;2022-10-16T03:12:42;9.73;;;8.57;;
10920;SDS011;5513;50.580;8.818;2022-10-16T03:15:11;13.30;;;9.57;;
10920;SDS011;5513;50.580;8.818;2022-10-16T03:17:39;13.03;;;10.03;;
10920;SDS011;5513;50.580;8.818;2022-10-16T03:20:09;10.53;;;8.90;;
10920;SDS011;5513;50.580;8.818;2022-10-16T03:22:38;12.63;;;9.77;;
10920;SDS011;5513;50.580;8.818;2022-10-16T03:25:07;15.10;;;10.67;;
10920;SDS011;5513;50.580;8.818;2022-10-16T03:27:35;14.77;;;11.00;;
10920;SDS011;5513;50.580;8.818;2022-10-16T03:30:04;15.43;;;11.23;;
10920;SDS011;5513;50.580;8.818;2022-10-16T03:32:33;15.33;;;11.27;;
10920;SDS011;5513;50.580;8.818;2022-10-16T03:35:02;14.97;;;11.77;;
10920;SDS011;5513;50.580;8.818;2022-10-16T03:37:32;14.77;;;11.73;;
10920;SDS011;5513;50.580;8.818;2022-10-16T03:40:00;16.10;;;11.50;;
10920;SDS011;5513;50.580;8.818;2022-10-16T03:42:30;16.37;;;11.93;;
10920;SDS011;5513;50.580;8.818;2022-10-16T03:44:58;18.07;;;12.80;;
10920;SDS011;5513;50.580;8.818;2022-10-16T03:47:26;17.20;;;12.50;;
10920;SDS011;5513;50.580;8.818;2022-10-16T03:49:55;17.70;;;12.10;;
10920;SDS011;5513;50.580;8.818;2022-10-16T03:52:23;17.23;;;13.03;;
10920;SDS011;5513;50.580;8.818;2022-10-16T03:54:53;16.63;;;12.13;;
10920;SDS011;5513;50.580;8.818;2022-10-16T03:57:22;18.40;;;12.93;;
10920;SDS011;5513;50.580;8.818;2022-10-16T03:59:51;14.37;;;12.00;;
10920;SDS011;5513;50.580;8.818;2022-10-16T04:02:21;19.27;;;13.57;;
10920;SDS011;5513;50.580;8.818;2022-10-16T04:04:49;14.10;;;10.83;;
10920;SDS011;5513;50.580;8.818;2022-10-16T04:07:17;15.63;;;11.47;;
10920;SDS011;5513;50.580;8.818;2022-10-16T04:09:47;18.20;;;11.90;;
10920;SDS011;5513;50.580;8.818;2022-10-16T04:12:17;18.00;;;12.77;;
10920;SDS011;5513;50.580;8.818;2022-10-16T04:14:46;17.00;;;12.60;;
10920;SDS011;5513;50.580;8.818;2022-10-16T04:17:14;17.27;;;12.93;;
10920;SDS011;5513;50.580;8.818;2022-10-16T04:19:42;14.97;;;10.83;;
10920;SDS011;5513;50.580;8.818;2022-10-16T04:22:11;20.73;;;12.27;;
10920;SDS011;5513;50.580;8.818;2022-10-16T04:24:39;14.93;;;11.17;;
10920;SDS011;5513;50.580;8.818;2022-10-16T04:27:08;16.53;;;11.70;;
10920;SDS011;5513;50.580;8.818;2022-10-16T04:29:38;15.47;;;11.80;;
10920;SDS011;5513;50.580;8.818;2022-10-16T04:32:07;16.77;;;12.63;;
10920;SDS011;5513;50.580;8.818;2022-10-16T04:34:38;16.97;;;12.27;;
10920;SDS011;5513;50.580;8.818;2022-10-16T04:37:07;14.80;;;10.33;;
10920;SDS011;5513;50.580;8.818;2022-10-16T04:39:35;12.63;;;10.07;;
10920;SDS011;5513;50.580;8.818;2022-10-16T04:42:07;9.40;;;8.20;;
10920;SDS011;5513;50.580;8.818;2022-10-16T04:44:38;7.20;;;6.30;;
10920;SDS011;5513;50.580;8.818;2022-10-16T04:47:08;5.90;;;5.30;;
10920;SDS011;5513;50.580;8.818;2022-10-16T04:49:37;4.90;;;4.10;;
10920;SDS011;5513;50.580;8.818;2022-10-16T04:52:05;4.93;;;3.70;;
10920;SDS011;5513;50.580;8.818;2022-10-16T04:54:36;3.93;;;3.37;;
10920;SDS011;5513;50.580;8.818;2022-10-16T04:57:04;3.50;;;2.80;;
10920;SDS011;5513;50.580;8.818;2022-10-16T04:59:33;4.33;;;2.70;;
10920;SDS011;5513;50.580;8.818;2022-10-16T05:02:03;6.03;;;2.80;;
10920;SDS011;5513;50.580;8.818;2022-10-16T05:04:32;2.20;;;2.00;;
10920;SDS011;5513;50.580;8.818;2022-10-16T05:07:01;4.70;;;2.50;;
10920;SDS011;5513;50.580;8.818;2022-10-16T05:09:29;2.40;;;2.20;;
10920;SDS011;5513;50.580;8.818;2022-10-16T05:11:58;4.33;;;2.07;;
10920;SDS011;5513;50.580;8.818;2022-10-16T05:14:27;4.13;;;1.70;;
10920;SDS011;5513;50.580;8.818;2022-10-16T05:16:55;2.93;;;1.60;;
10920;SDS011;5513;50.580;8.818;2022-10-16T05:19:27;5.43;;;1.60;;
10920;SDS011;5513;50.580;8.818;2022-10-16T05:21:55;1.80;;;1.50;;
10920;SDS011;5513;50.580;8.818;2022-10-16T05:24:26;2.43;;;1.60;;
10920;SDS011;5513;50.580;8.818;2022-10-16T05:26:54;3.70;;;1.70;;
10920;SDS011;5513;50.580;8.818;2022-10-16T05:29:24;3.60;;;1.57;;
10920;SDS011;5513;50.580;8.818;2022-10-16T05:31:53;5.70;;;2.20;;
10920;SDS011;5513;50.580;8.818;2022-10-16T05:34:21;3.97;;;1.90;;
10920;SDS011;5513;50.580;8.818;2022-10-16T05:36:51;1.77;;;1.63;;
10920;SDS011;5513;50.580;8.818;2022-10-16T05:39:20;4.17;;;1.70;;
10920;SDS011;5513;50.580;8.818;2022-10-16T05:41:49;2.43;;;1.60;;
10920;SDS011;5513;50.580;8.818;2022-10-16T05:44:18;1.97;;;1.70;;
10920;SDS011;5513;50.580;8.818;2022-10-16T05:46:47;2.23;;;1.67;;
10920;SDS011;5513;50.580;8.818;2022-10-16T05:49:15;3.60;;;1.60;;
10920;SDS011;5513;50.580;8.818;2022-10-16T05:51:47;2.47;;;1.77;;
10920;SDS011;5513;50.580;8.818;2022-10-16T05:54:17;4.30;;;1.70;;
10920;SDS011;5513;50.580;8.818;2022-10-16T05:56:46;2.33;;;1.80;;
10920;SDS011;5513;50.580;8.818;2022-10-16T05:59:15;2.20;;;2.00;;
10920;SDS011;5513;50.580;8.818;2022-10-16T06:01:44;3.83;;;2.17;;
10920;SDS011;5513;50.580;8.818;2022-10-16T06:04:12;6.20;;;2.83;;
10920;SDS011;5513;50.580;8.818;2022-10-16T06:06:41;3.73;;;2.80;;
10920;SDS011;5513;50.580;8.818;2022-10-16T06:09:10;5.07;;;3.43;;
10920;SDS011;5513;50.580;8.818;2022-10-16T06:11:40;5.53;;;3.50;;
10920;SDS011;5513;50.580;8.818;2022-10-16T06:14:09;5.20;;;4.73;;
10920;SDS011;5513;50.580;8.818;2022-10-16T06:16:39;7.93;;;6.07;;
10920;SDS011;5513;50.580;8.818;2022-10-16T06:19:10;10.00;;;7.13;;
10920;SDS011;5513;50.580;8.818;2022-10-16T06:21:40;12.40;;;7.97;;
10920;SDS011;5513;50.580;8.818;2022-10-16T06:24:09;10.00;;;8.63;;
10920;SDS011;5513;50.580;8.818;2022-10-16T06:26:40;9.90;;;8.93;;
10920;SDS011;5513;50.580;8.818;2022-10-16T06:29:08;13.27;;;9.27;;
10920;SDS011;5513;50.580;8.818;2022-10-16T06:31:37;12.33;;;10.60;;
10920;SDS011;5513;50.580;8.818;2022-10-16T06:34:05;11.80;;;10.60;;
10920;SDS011;5513;50.580;8.818;2022-10-16T06:36:35;11.37;;;10.17;;
10920;SDS011;5513;50.580;8.818;2022-10-16T06:39:04;12.53;;;10.80;;
10920;SDS011;5513;50.580;8.818;2022-10-16T06:41:34;14.03;;;11.80;;
10920;SDS011;5513;50.580;8.818;2022-10-16T06:44:06;14.47;;;11.70;;
10920;SDS011;5513;50.580;8.818;2022-10-16T06:46:35;11.93;;;10.67;;
10920;SDS011;5513;50.580;8.818;2022-10-16T06:49:10;17.07;;;11.67;;
10920;SDS011;5513;50.580;8.818;2022-10-16T06:51:43;14.37;;;11.43;;
10920;SDS011;5513;50.580;8.818;2022-10-16T06:54:14;16.03;;;13.03;;
10920;SDS011;5513;50.580;8.818;2022-10-16T06:56:47;16.50;;;12.87;;
10920;SDS011;5513;50.580;8.818;2022-10-16T06:59:18;12.37;;;11.13;;
10920;SDS011;5513;50.580;8.818;2022-10-16T07:01:46;11.83;;;9.53;;
10920;SDS011;5513;50.580;8.818;2022-10-16T07:04:16;11.60;;;10.40;;
10920;SDS011;5513;50.580;8.818;2022-10-16T07:06:44;12.20;;;10.20;;
10920;SDS011;5513;50.580;8.818;2022-10-16T07:09:13;12.37;;;11.00;;
10920;SDS011;5513;50.580;8.818;2022-10-16T07:11:41;12.27;;;11.07;;
10920;SDS011;5513;50.580;8.818;2022-10-16T07:14:12;10.93;;;9.83;;
10920;SDS011;5513;50.580;8.818;2022-10-16T07:16:46;11.23;;;10.13;;
10920;SDS011;5513;50.580;8.818;2022-10-16T07:19:14;13.40;;;10.47;;
10920;SDS011;5513;50.580;8.818;2022-10-16T07:21:44;12.73;;;11.40;;
10920;SDS011;5513;50.580;8.818;2022-10-16T07:24:15;11.87;;;9.80;;
10920;SDS011;5513;50.580;8.818;2022-10-16T07:26:45;10.70;;;9.10;;
10920;SDS011;5513;50.580;8.818;2022-10-16T07:29:16;12.37;;;10.53;;
10920;SDS011;5513;50.580;8.818;2022-10-16T07:31:47;10.20;;;9.20;;
10920;SDS011;5513;50.580;8.818;2022-10-16T07:34:17;11.43;;;10.30;;
10920;SDS011;5513;50.580;8.818;2022-10-16T07:36:48;11.80;;;10.03;;
10920;SDS011;5513;50.580;8.818;2022-10-16T07:39:16;13.50;;;9.70;;
10920;SDS011;5513;50.580;8.818;2022-10-16T07:41:45;11.27;;;9.43;;
10920;SDS011;5513;50.580;8.818;2022-10-16T07:44:15;10.00;;;8.27;;
10920;SDS011;5513;50.580;8.818;2022-10-16T07:46:45;9.33;;;8.43;;
10920;SDS011;5513;50.580;8.818;2022-10-16T07:49:15;8.30;;;7.50;;
10920;SDS011;5513;50.580;8.818;2022-10-16T07:51:44;9.53;;;7.50;;
10920;SDS011;5513;50.580;8.818;2022-10-16T07:54:12;9.57;;;7.83;;
10920;SDS011;5513;50.580;8.818;2022-10-16T07:56:43;9.70;;;7.27;;
10920;SDS011;5513;50.580;8.818;2022-10-16T07:59:14;7.57;;;6.80;;
10920;SDS011;5513;50.580;8.818;2022-10-16T08:01:45;8.70;;;7.10;;
10920;SDS011;5513;50.580;8.818;2022-10-16T08:04:20;8.20;;;6.70;;
10920;SDS011;5513;50.580;8.818;2022-10-16T08:06:48;8.53;;;6.70;;
10920;SDS011;5513;50.580;8.818;2022-10-16T08:09:17;6.77;;;6.00;;
10920;SDS011;5513;50.580;8.818;2022-10-16T08:11:45;7.83;;;6.40;;
10920;SDS011;5513;50.580;8.818;2022-10-16T08:14:14;6.53;;;5.80;;
10920;SDS011;5513;50.580;8.818;2022-10-16T08:16:43;7.17;;;6.30;;
10920;SDS011;5513;50.580;8.818;2022-10-16T08:19:11;7.30;;;5.93;;
10920;SDS011;5513;50.580;8.818;2022-10-16T08:21:46;7.23;;;5.57;;
10920;SDS011;5513;50.580;8.818;2022-10-16T08:24:15;7.70;;;5.90;;
10920;SDS011;5513;50.580;8.818;2022-10-16T08:26:47;5.70;;;5.20;;
10920;SDS011;5513;50.580;8.818;2022-10-16T08:29:15;6.37;;;5.23;;
10920;SDS011;5513;50.580;8.818;2022-10-16T08:31:45;7.80;;;5.30;;
10920;SDS011;5513;50.580;8.818;2022-10-16T08:34:14;5.53;;;4.93;;
10920;SDS011;5513;50.580;8.818;2022-10-16T08:36:43;5.97;;;5.20;;
10920;SDS011;5513;50.580;8.818;2022-10-16T08:39:15;6.73;;;4.97;;
10920;SDS011;5513;50.580;8.818;2022-10-16T08:42:06;8.40;;;4.93;;
10920;SDS011;5513;50.580;8.818;2022-10-16T08:45:01;6.27;;;5.00;;
10920;SDS011;5513;50.580;8.818;2022-10-16T08:47:48;6.30;;;4.70;;
10920;SDS011;5513;50.580;8.818;2022-10-16T08:50:22;5.00;;;4.37;;
10920;SDS011;5513;50.580;8.818;2022-10-16T08:52:58;6.20;;;3.90;;
10920;SDS011;5513;50.580;8.818;2022-10-16T08:55:31;5.57;;;3.97;;
10920;SDS011;5513;50.580;8.818;2022-10-16T08:58:09;5.20;;;4.57;;
10920;SDS011;5513;50.580;8.818;2022-10-16T09:00:43;5.60;;;4.60;;
10920;SDS011;5513;50.580;8.818;2022-10-16T09:03:17;5.70;;;4.10;;
10920;SDS011;5513;50.580;8.818;2022-10-16T09:08:54;4.73;;;4.00;;
10920;SDS011;5513;50.580;8.818;2022-10-16T09:11:48;3.60;;;3.30;;
10920;SDS011;5513;50.580;8.818;2022-10-16T09:14:32;4.40;;;4.00;;
10920;SDS011;5513;50.580;8.818;2022-10-16T09:17:21;4.73;;;4.33;;
10920;SDS011;5513;50.580;8.818;2022-10-16T09:20:04;5.37;;;3.70;;
10920;SDS011;5513;50.580;8.818;2022-10-16T09:22:46;4.30;;;3.17;;
10920;SDS011;5513;50.580;8.818;2022-10-16T09:25:17;3.40;;;2.97;;
10920;SDS011;5513;50.580;8.818;2022-10-16T09:27:49;6.33;;;3.03;;
10920;SDS011;5513;50.580;8.818;2022-10-16T09:30:22;4.27;;;3.10;;
10920;SDS011;5513;50.580;8.818;2022-10-16T09:32:59;5.07;;;3.13;;
10920;SDS011;5513;50.580;8.818;2022-10-16T09:35:31;5.80;;;3.20;;
10920;SDS011;5513;50.580;8.818;2022-10-16T09:38:05;7.53;;;4.50;;
10920;SDS011;5513;50.580;8.818;2022-10-16T09:40:38;3.60;;;3.17;;
10920;SDS011;5513;50.580;8.818;2022-10-16T09:43:18;3.53;;;3.00;;
10920;SDS011;5513;50.580;8.818;2022-10-16T09:45:56;3.73;;;3.30;;
10920;SDS011;5513;50.580;8.818;2022-10-16T09:48:27;3.80;;;2.20;;
10920;SDS011;5513;50.580;8.818;2022-10-16T09:51:01;3.97;;;2.70;;
10920;SDS011;5513;50.580;8.818;2022-10-16T09:53:40;2.10;;;1.80;;
10920;SDS011;5513;50.580;8.818;2022-10-16T09:56:20;3.27;;;2.10;;
10920;SDS011;5513;50.580;8.818;2022-10-16T09:58:50;3.20;;;2.00;;
10920;SDS011;5513;50.580;8.818;2022-10-16T10:01:20;2.07;;;1.30;;
10920;SDS011;5513;50.580;8.818;2022-10-16T10:03:51;1.60;;;1.30;;
10920;SDS011;5513;50.580;8.818;2022-10-16T10:06:28;1.87;;;1.43;;
10920;SDS011;5513;50.580;8.818;2022-10-16T10:09:04;1.33;;;1.10;;
10920;SDS011;5513;50.580;8.818;2022-10-16T10:14:34;1.80;;;1.20;;
10920;SDS011;5513;50.580;8.818;2022-10-16T10:17:15;4.00;;;1.30;;
10920;SDS011;5513;50.580;8.818;2022-10-16T10:19:47;2.00;;;1.23;;
10920;SDS011;5513;50.580;8.818;2022-10-16T10:22:29;0.80;;;0.80;;
10920;SDS011;5513;50.580;8.818;2022-10-16T10:25:16;0.90;;;0.90;;
10920;SDS011;5513;50.580;8.818;2022-10-16T10:31:03;2.23;;;1.10;;
10920;SDS011;5513;50.580;8.818;2022-10-16T10:33:39;1.53;;;0.90;;
10920;SDS011;5513;50.580;8.818;2022-10-16T10:36:22;1.83;;;1.07;;
10920;SDS011;5513;50.580;8.818;2022-10-16T10:38:58;1.30;;;1.20;;
10920;SDS011;5513;50.580;8.818;2022-10-16T10:41:51;2.33;;;1.00;;
10920;SDS011;5513;50.580;8.818;2022-10-16T10:44:49;0.80;;;0.80;;
10920;SDS011;5513;50.580;8.818;2022-10-16T10:47:38;4.63;;;1.80;;
10920;SDS011;5513;50.580;8.818;2022-10-16T10:50:18;1.47;;;1.00;;
10920;SDS011;5513;50.580;8.818;2022-10-16T10:52:59;2.47;;;1.50;;
10920;SDS011;5513;50.580;8.818;2022-10-16T10:55:37;1.20;;;1.10;;
10920;SDS011;5513;50.580;8.818;2022-10-16T11:01:16;0.97;;;0.90;;
10920;SDS011;5513;50.580;8.818;2022-10-16T11:03:59;1.63;;;0.90;;
10920;SDS011;5513;50.580;8.818;2022-10-16T11:06:42;2.53;;;0.70;;
10920;SDS011;5513;50.580;8.818;2022-10-16T11:09:15;1.90;;;0.80;;
10920;SDS011;5513;50.580;8.818;2022-10-16T11:11:47;0.93;;;0.60;;
10920;SDS011;5513;50.580;8.818;2022-10-16T11:14:23;1.13;;;0.90;;
10920;SDS011;5513;50.580;8.818;2022-10-16T11:17:02;2.60;;;0.70;;
10920;SDS011;5513;50.580;8.818;2022-10-16T11:19:40;5.67;;;1.03;;
10920;SDS011;5513;50.580;8.818;2022-10-16T11:22:14;2.07;;;0.70;;
10920;SDS011;5513;50.580;8.818;2022-10-16T11:24:48;2.60;;;0.90;;
10920;SDS011;5513;50.580;8.818;2022-10-16T11:27:33;2.77;;;0.80;;
10920;SDS011;5513;50.580;8.818;2022-10-16T11:30:06;1.63;;;0.80;;
10920;SDS011;5513;50.580;8.818;2022-10-16T11:32:52;1.73;;;0.90;;
10920;SDS011;5513;50.580;8.818;2022-10-16T11:35:37;1.73;;;0.80;;
10920;SDS011;5513;50.580;8.818;2022-10-16T11:38:22;1.97;;;0.90;;
10920;SDS011;5513;50.580;8.818;2022-10-16T11:41:00;1.00;;;0.80;;
10920;SDS011;5513;50.580;8.818;2022-10-16T11:43:37;1.60;;;0.70;;
10920;SDS011;5513;50.580;8.818;2022-10-16T11:46:12;1.77;;;0.70;;
10920;SDS011;5513;50.580;8.818;2022-10-16T11:48:45;1.57;;;0.87;;
10920;SDS011;5513;50.580;8.818;2022-10-16T11:51:21;3.23;;;0.70;;
10920;SDS011;5513;50.580;8.818;2022-10-16T11:53:58;1.53;;;0.70;;
10920;SDS011;5513;50.580;8.818;2022-10-16T11:56:36;1.10;;;0.67;;
10920;SDS011;5513;50.580;8.818;2022-10-16T11:59:07;2.10;;;0.90;;
10920;SDS011;5513;50.580;8.818;2022-10-16T12:01:46;2.90;;;0.90;;
10920;SDS011;5513;50.580;8.818;2022-10-16T12:04:22;4.93;;;1.10;;
10920;SDS011;5513;50.580;8.818;2022-10-16T12:07:02;1.73;;;1.30;;
10920;SDS011;5513;50.580;8.818;2022-10-16T12:09:34;2.17;;;1.07;;
10920;SDS011;5513;50.580;8.818;2022-10-16T12:15:01;3.43;;;1.30;;
10920;SDS011;5513;50.580;8.818;2022-10-16T12:18:00;1.10;;;0.77;;
10920;SDS011;5513;50.580;8.818;2022-10-16T12:20:31;1.03;;;0.90;;
10920;SDS011;5513;50.580;8.818;2022-10-16T12:23:03;2.87;;;1.00;;
10920;SDS011;5513;50.580;8.818;2022-10-16T12:25:34;1.83;;;0.90;;
10920;SDS011;5513;50.580;8.818;2022-10-16T12:28:17;2.80;;;1.93;;
10920;SDS011;5513;50.580;8.818;2022-10-16T12:30:52;3.07;;;1.57;;
10920;SDS011;5513;50.580;8.818;2022-10-16T12:33:23;1.73;;;1.10;;
10920;SDS011;5513;50.580;8.818;2022-10-16T12:35:55;4.83;;;1.60;;
10920;SDS011;5513;50.580;8.818;2022-10-16T12:38:27;2.77;;;1.60;;
10920;SDS011;5513;50.580;8.818;2022-10-16T12:41:02;10.07;;;5.03;;
10920;SDS011;5513;50.580;8.818;2022-10-16T12:43:37;50.47;;;23.30;;
10920;SDS011;5513;50.580;8.818;2022-10-16T12:46:23;2.13;;;1.73;;
10920;SDS011;5513;50.580;8.818;2022-10-16T12:52:26;1.10;;;0.90;;
10920;SDS011;5513;50.580;8.818;2022-10-16T12:55:03;1.40;;;1.30;;
10920;SDS011;5513;50.580;8.818;2022-10-16T12:57:49;1.40;;;1.30;;
10920;SDS011;5513;50.580;8.818;2022-10-16T13:00:40;2.63;;;1.20;;
10920;SDS011;5513;50.580;8.818;2022-10-16T13:03:23;1.10;;;1.00;;
10920;SDS011;5513;50.580;8.818;2022-10-16T13:06:15;4.07;;;1.10;;
10920;SDS011;5513;50.580;8.818;2022-10-16T13:08:56;2.23;;;1.40;;
10920;SDS011;5513;50.580;8.818;2022-10-16T13:11:44;1.70;;;1.10;;
10920;SDS011;5513;50.580;8.818;2022-10-16T13:14:32;1.90;;;1.70;;
10920;SDS011;5513;50.580;8.818;2022-10-16T13:17:15;2.47;;;1.37;;
10920;SDS011;5513;50.580;8.818;2022-10-16T13:19:56;1.33;;;1.20;;
10920;SDS011;5513;50.580;8.818;2022-10-16T13:22:32;2.33;;;1.30;;
10920;SDS011;5513;50.580;8.818;2022-10-16T13:25:18;3.47;;;1.37;;
10920;SDS011;5513;50.580;8.818;2022-10-16T13:27:56;2.17;;;1.40;;
10920;SDS011;5513;50.580;8.818;2022-10-16T13:30:30;1.93;;;1.80;;
10920;SDS011;5513;50.580;8.818;2022-10-16T13:33:03;3.70;;;1.83;;
10920;SDS011;5513;50.580;8.818;2022-10-16T13:35:47;5.13;;;2.00;;
10920;SDS011;5513;50.580;8.818;2022-10-16T13:38:18;2.13;;;1.67;;
10920;SDS011;5513;50.580;8.818;2022-10-16T13:41:00;4.03;;;1.80;;
10920;SDS011;5513;50.580;8.818;2022-10-16T13:43:32;5.43;;;1.83;;
10920;SDS011;5513;50.580;8.818;2022-10-16T13:46:07;4.90;;;2.30;;
10920;SDS011;5513;50.580;8.818;2022-10-16T13:48:43;1.97;;;1.77;;
10920;SDS011;5513;50.580;8.818;2022-10-16T13:51:13;2.43;;;1.90;;
10920;SDS011;5513;50.580;8.818;2022-10-16T13:53:45;1.93;;;1.77;;
10920;SDS011;5513;50.580;8.818;2022-10-16T13:56:21;3.30;;;1.87;;
10920;SDS011;5513;50.580;8.818;2022-10-16T13:59:02;2.83;;;2.00;;
10920;SDS011;5513;50.580;8.818;2022-10-16T14:01:32;2.97;;;2.00;;
10920;SDS011;5513;50.580;8.818;2022-10-16T14:04:04;3.43;;;1.80;;
10920;SDS011;5513;50.580;8.818;2022-10-16T14:06:34;4.80;;;1.80;;
10920;SDS011;5513;50.580;8.818;2022-10-16T14:09:08;2.80;;;1.80;;
10920;SDS011;5513;50.580;8.818;2022-10-16T14:11:44;2.87;;;2.00;;
10920;SDS011;5513;50.580;8.818;2022-10-16T14:14:17;2.97;;;1.70;;
10920;SDS011;5513;50.580;8.818;2022-10-16T14:16:47;2.47;;;1.43;;
10920;SDS011;5513;50.580;8.818;2022-10-16T14:19:22;2.43;;;1.80;;
10920;SDS011;5513;50.580;8.818;2022-10-16T14:22:14;2.23;;;1.40;;
10920;SDS011;5513;50.580;8.818;2022-10-16T14:24:53;4.83;;;1.50;;
10920;SDS011;5513;50.580;8.818;2022-10-16T14:27:28;1.70;;;1.33;;
10920;SDS011;5513;50.580;8.818;2022-10-16T14:30:05;2.17;;;1.40;;
10920;SDS011;5513;50.580;8.818;2022-10-16T14:32:41;2.43;;;1.40;;
10920;SDS011;5513;50.580;8.818;2022-10-16T14:35:22;1.80;;;1.40;;
10920;SDS011;5513;50.580;8.818;2022-10-16T14:37:53;2.83;;;1.30;;
10920;SDS011;5513;50.580;8.818;2022-10-16T14:40:24;3.30;;;2.20;;
10920;SDS011;5513;50.580;8.818;2022-10-16T14:42:57;1.97;;;1.60;;
10920;SDS011;5513;50.580;8.818;2022-10-16T14:45:29;4.20;;;1.67;;
10920;SDS011;5513;50.580;8.818;2022-10-16T14:48:01;3.33;;;1.90;;
10920;SDS011;5513;50.580;8.818;2022-10-16T14:50:34;2.38;;;1.88;;
10920;SDS011;5513;50.580;8.818;2022-10-16T14:53:07;2.00;;;1.73;;
10920;SDS011;5513;50.580;8.818;2022-10-16T14:55:40;1.87;;;1.77;;
10920;SDS011;5513;50.580;8.818;2022-10-16T14:58:15;1.67;;;1.57;;
10920;SDS011;5513;50.580;8.818;2022-10-16T15:00:46;3.67;;;1.80;;
10920;SDS011;5513;50.580;8.818;2022-10-16T15:03:16;2.87;;;1.70;;
10920;SDS011;5513;50.580;8.818;2022-10-16T15:05:45;3.37;;;1.80;;
10920;SDS011;5513;50.580;8.818;2022-10-16T15:08:27;1.93;;;1.77;;
10920;SDS011;5513;50.580;8.818;2022-10-16T15:10:57;2.00;;;1.80;;
10920;SDS011;5513;50.580;8.818;2022-10-16T15:13:30;2.27;;;1.63;;
10920;SDS011;5513;50.580;8.818;2022-10-16T15:16:00;3.40;;;3.10;;
10920;SDS011;5513;50.580;8.818;2022-10-16T15:18:30;2.73;;;1.90;;
10920;SDS011;5513;50.580;8.818;2022-10-16T15:20:59;4.23;;;1.93;;
10920;SDS011;5513;50.580;8.818;2022-10-16T15:23:34;2.73;;;1.77;;
10920;SDS011;5513;50.580;8.818;2022-10-16T15:26:02;2.33;;;2.13;;
10920;SDS011;5513;50.580;8.818;2022-10-16T15:28:32;1.60;;;1.50;;
10920;SDS011;5513;50.580;8.818;2022-10-16T15:31:02;2.10;;;1.90;;
10920;SDS011;5513;50.580;8.818;2022-10-16T15:33:32;2.10;;;1.80;;
10920;SDS011;5513;50.580;8.818;2022-10-16T15:36:05;2.30;;;1.63;;
10920;SDS011;5513;50.580;8.818;2022-10-16T15:38:35;3.10;;;1.77;;
10920;SDS011;5513;50.580;8.818;2022-10-16T15:41:04;1.83;;;1.63;;
10920;SDS011;5513;50.580;8.818;2022-10-16T15:43:34;3.80;;;1.90;;
10920;SDS011;5513;50.580;8.818;2022-10-16T15:46:03;3.83;;;2.10;;
10920;SDS011;5513;50.580;8.818;2022-10-16T15:48:34;2.50;;;1.77;;